Time;durP1;ratioP1;P1;durP2;ratioP2;P2;SDS_P1;SDS_P2;PMS_P1;PMS_P2;Temp;Humidity;BMP_temperature;BMP_pressure;BME280_temperature;BME280_humidity;BME280_pressure;Samples;Min_cycle;Max_cycle;Signal;HPM_P1;HPM_P2
2021/06/13 00:00:28;;;;;;;2.92;2.13;;;;;;;18.40;58.18;99323.81;5074230;28;20525;-76
2021/06/13 00:02:54;;;;;;;2.97;2.45;;;;;;;18.66;58.32;99351.97;5073806;28;20675;-76
2021/06/13 00:05:20;;;;;;;2.63;2.28;;;;;;;19.14;57.96;99428.41;5073671;28;20024;-76
2021/06/13 00:07:45;;;;;;;3.88;2.58;;;;;;;19.14;58.04;99424.91;5073896;28;20059;-77
2021/06/13 00:10:13;;;;;;;3.45;2.50;;;;;;;19.13;57.89;99424.09;5073670;28;20041;-76
2021/06/13 00:12:39;;;;;;;2.83;2.60;;;;;;;19.12;58.08;99432.34;5072417;28;20031;-76
2021/06/13 00:15:07;;;;;;;2.88;2.22;;;;;;;18.57;57.86;99352.50;5073506;28;20029;-76
2021/06/13 00:17:33;;;;;;;2.33;2.13;;;;;;;18.48;57.88;99346.69;5073786;28;20067;-76
2021/06/13 00:19:58;;;;;;;2.53;2.33;;;;;;;18.66;57.86;99370.69;5073486;28;20060;-77
2021/06/13 00:22:24;;;;;;;3.47;2.80;;;;;;;19.01;57.79;99415.28;5073148;28;20028;-77
2021/06/13 00:24:49;;;;;;;3.13;2.83;;;;;;;18.53;57.76;99351.34;5073418;28;20494;-77
2021/06/13 00:27:15;;;;;;;3.65;2.50;;;;;;;18.82;57.90;99403.09;5073620;28;20500;-76
2021/06/13 00:29:40;;;;;;;3.80;2.22;;;;;;;18.96;58.01;99432.03;5073790;28;20028;-76
2021/06/13 00:32:06;;;;;;;4.30;2.72;;;;;;;18.54;57.99;99347.63;5073138;28;20020;-77
2021/06/13 00:34:31;;;;;;;2.42;2.25;;;;;;;18.99;57.90;99425.41;5072910;28;20052;-76
2021/06/13 00:36:57;;;;;;;4.20;2.22;;;;;;;18.65;57.70;99361.03;5071880;28;20056;-76
2021/06/13 00:39:22;;;;;;;3.70;2.60;;;;;;;19.01;57.76;99410.75;5073054;28;20031;-76
2021/06/13 00:41:48;;;;;;;4.10;2.63;;;;;;;18.83;57.72;99388.69;5073095;28;20032;-75
2021/06/13 00:44:13;;;;;;;4.28;2.40;;;;;;;18.79;57.80;99377.63;5072952;28;20107;-76
2021/06/13 00:46:40;;;;;;;2.50;2.30;;;;;;;18.62;57.74;99358.81;5073224;28;20020;-76
2021/06/13 00:49:07;;;;;;;2.92;2.50;;;;;;;18.19;57.73;99284.31;5072695;28;20493;-77
2021/06/13 00:51:32;;;;;;;5.25;2.83;;;;;;;18.37;57.71;99326.94;5072683;28;20043;-76
2021/06/13 00:53:58;;;;;;;3.20;2.90;;;;;;;18.76;57.81;99385.31;5072668;28;20444;-76
2021/06/13 00:56:23;;;;;;;3.35;2.55;;;;;;;18.43;58.01;99343.91;5072602;28;20432;-76
2021/06/13 00:58:50;;;;;;;2.78;2.40;;;;;;;18.78;57.97;99413.47;5072550;28;20025;-77
2021/06/13 01:01:15;;;;;;;2.97;2.50;;;;;;;18.41;57.82;99348.66;5071156;28;20407;-77
2021/06/13 01:03:42;;;;;;;4.72;2.20;;;;;;;18.54;57.74;99387.72;5072780;28;20013;-76
2021/06/13 01:06:08;;;;;;;2.70;2.50;;;;;;;18.29;57.80;99326.47;5072620;28;20020;-76
2021/06/13 01:08:54;;;;;;;3.15;2.58;;;;;;;18.39;57.74;99356.94;5071097;28;20035;-76
2021/06/13 01:11:43;;;;;;;4.05;2.50;;;;;;;18.59;57.91;99394.03;5072741;28;20134;-75
2021/06/13 01:14:21;;;;;;;4.20;2.60;;;;;;;18.47;57.83;99387.03;5072661;28;20029;-76
2021/06/13 01:17:15;;;;;;;2.80;2.60;;;;;;;18.30;57.83;99358.31;5072640;28;20032;-75
2021/06/13 01:20:03;;;;;;;2.58;2.38;;;;;;;18.50;57.82;99398.06;5072446;28;20025;-76
2021/06/13 01:23:10;;;;;;;3.72;2.65;;;;;;;18.36;57.95;99372.63;5071045;28;20503;-77
2021/06/13 01:25:43;;;;;;;3.70;2.40;;;;;;;18.45;57.93;99387.25;5071830;28;20116;-76
2021/06/13 01:28:56;;;;;;;2.83;2.63;;;;;;;18.49;57.85;99388.41;5072494;28;20028;-76
2021/06/13 01:31:26;;;;;;;2.95;2.65;;;;;;;18.48;57.60;99399.34;5030575;28;20030;-76
2021/06/13 01:33:56;;;;;;;3.45;2.22;;;;;;;18.11;57.54;99335.44;5013306;28;20028;-75
2021/06/13 01:36:23;;;;;;;2.88;2.50;;;;;;;18.06;57.76;99346.00;5051600;28;20067;-75
2021/06/13 01:38:49;;;;;;;3.33;2.78;;;;;;;18.09;58.00;99346.34;5072485;28;20025;-76
2021/06/13 01:41:20;;;;;;;5.00;3.00;;;;;;;18.39;57.46;99396.22;5072227;28;20455;-76
2021/06/13 01:43:46;;;;;;;3.80;2.60;;;;;;;18.34;57.70;99388.88;5071875;28;20025;-76
2021/06/13 01:46:13;;;;;;;3.05;2.70;;;;;;;18.14;57.81;99350.19;5070724;28;20082;-77
2021/06/13 01:48:40;;;;;;;3.65;2.78;;;;;;;17.92;57.71;99305.34;5071656;28;20099;-77
2021/06/13 01:51:06;;;;;;;3.85;2.50;;;;;;;18.23;57.60;99354.94;5071771;28;20552;-75
2021/06/13 01:53:41;;;;;;;3.80;2.72;;;;;;;18.35;57.64;99377.16;5071863;28;20508;-77
2021/06/13 01:56:10;;;;;;;2.95;2.75;;;;;;;18.17;57.79;99350.53;5071546;28;20020;-77
2021/06/13 01:58:36;;;;;;;3.85;2.47;;;;;;;18.37;57.89;99383.06;5072063;28;20115;-76
2021/06/13 02:01:05;;;;;;;4.40;2.70;;;;;;;18.04;57.67;99340.06;5071697;28;20107;-76
2021/06/13 02:03:31;;;;;;;2.63;2.42;;;;;;;18.25;57.82;99374.25;5071801;28;20032;-76
2021/06/13 02:05:58;;;;;;;3.80;2.60;;;;;;;18.10;57.95;99355.19;5071608;28;20020;-76
2021/06/13 02:08:24;;;;;;;3.00;2.60;;;;;;;18.22;58.12;99373.88;5071134;28;20550;-76
2021/06/13 02:10:53;;;;;;;5.75;3.10;;;;;;;17.71;58.01;99304.00;5071743;28;20021;-76
2021/06/13 02:13:19;;;;;;;3.60;2.58;;;;;;;17.84;57.99;99326.25;5071662;28;20016;-76
2021/06/13 02:15:45;;;;;;;3.58;2.75;;;;;;;17.46;57.93;99277.47;5071524;28;20024;-76
2021/06/13 02:18:11;;;;;;;4.50;2.58;;;;;;;17.86;57.68;99327.63;5070597;28;20059;-76
2021/06/13 02:20:39;;;;;;;3.22;2.45;;;;;;;18.09;57.79;99365.06;5071493;28;20035;-76
2021/06/13 02:23:05;;;;;;;3.38;2.65;;;;;;;17.89;57.72;99334.38;5070225;28;20453;-76
2021/06/13 02:25:30;;;;;;;6.00;3.13;;;;;;;18.08;57.68;99370.63;5069896;28;20063;-76
2021/06/13 02:27:59;;;;;;;2.75;2.55;;;;;;;18.10;57.77;99381.91;5071445;28;20063;-75
2021/06/13 02:30:26;;;;;;;4.43;2.72;;;;;;;17.68;57.83;99333.84;5070107;28;20409;-75
2021/06/13 02:32:55;;;;;;;4.07;2.42;;;;;;;17.60;57.91;99309.31;5071145;28;20099;-75
2021/06/13 02:35:21;;;;;;;4.50;2.40;;;;;;;18.02;57.87;99375.03;5071504;28;20085;-76
2021/06/13 02:37:47;;;;;;;3.55;2.03;;;;;;;17.97;58.03;99377.59;5071391;28;20025;-75
2021/06/13 02:40:14;;;;;;;6.88;2.70;;;;;;;17.64;57.95;99327.31;5071392;28;20028;-75
2021/06/13 02:42:39;;;;;;;5.05;2.90;;;;;;;17.65;58.15;99336.13;5071240;28;20024;-77
2021/06/13 02:45:20;;;;;;;4.25;2.50;;;;;;;17.91;58.08;99377.69;5071305;28;20033;-76
2021/06/13 02:47:46;;;;;;;4.32;2.65;;;;;;;17.69;58.00;99348.81;5069879;28;20401;-75
2021/06/13 02:50:12;;;;;;;3.78;2.58;;;;;;;17.68;58.18;99357.88;5071272;28;20021;-76
2021/06/13 02:52:43;;;;;;;4.05;2.60;;;;;;;17.88;57.89;99378.16;5071280;28;20398;-76
2021/06/13 02:55:18;;;;;;;4.03;2.90;;;;;;;17.48;57.85;99318.09;5071140;28;20024;-76
2021/06/13 02:57:51;;;;;;;4.53;3.17;;;;;;;17.55;58.10;99320.66;5069649;28;20031;-76
2021/06/13 03:00:18;;;;;;;4.45;2.70;;;;;;;17.85;57.84;99394.63;5071268;28;20029;-75
2021/06/13 03:02:50;;;;;;;5.80;2.80;;;;;;;17.65;58.16;99358.31;5071271;28;20024;-76
2021/06/13 03:05:18;;;;;;;5.10;2.70;;;;;;;17.86;58.26;99386.38;5069827;28;20024;-75
2021/06/13 03:07:45;;;;;;;5.00;2.42;;;;;;;17.81;57.85;99364.06;5069933;28;20120;-76
2021/06/13 03:10:11;;;;;;;6.18;3.03;;;;;;;17.28;57.77;99276.72;5071403;28;20086;-74
2021/06/13 03:12:38;;;;;;;6.05;2.83;;;;;;;17.95;57.78;99384.19;5071295;28;20108;-76
2021/06/13 03:15:05;;;;;;;4.32;2.72;;;;;;;17.97;57.97;99379.44;5071313;28;20509;-74
2021/06/13 03:17:30;;;;;;;4.53;3.33;;;;;;;17.85;57.82;99346.56;5069774;28;20036;-77
2021/06/13 03:19:56;;;;;;;6.20;2.80;;;;;;;17.70;57.70;99317.59;5071006;28;20025;-76
2021/06/13 03:22:23;;;;;;;5.93;3.17;;;;;;;17.65;57.73;99312.09;5074236;28;20481;-76
2021/06/13 03:24:50;;;;;;;4.70;3.15;;;;;;;17.33;57.69;99247.50;5074683;28;20021;-77
2021/06/13 03:27:17;;;;;;;5.95;3.15;;;;;;;17.62;58.04;99304.53;5074568;28;20105;-77
2021/06/13 03:29:45;;;;;;;5.70;3.45;;;;;;;18.03;57.86;99373.19;5074681;28;20021;-77
2021/06/13 03:32:13;;;;;;;6.55;3.08;;;;;;;17.78;57.99;99331.41;5074251;28;20032;-77
2021/06/13 03:34:39;;;;;;;4.90;3.13;;;;;;;17.77;57.95;99324.44;5074666;28;20409;-76
2021/06/13 03:37:07;;;;;;;4.10;3.05;;;;;;;18.18;57.48;99370.06;5073103;28;20039;-76
2021/06/13 03:39:35;;;;;;;7.32;3.35;;;;;;;17.71;57.67;99296.00;5074311;28;20035;-77
2021/06/13 03:42:01;;;;;;;3.80;3.20;;;;;;;18.16;57.75;99362.28;5074435;28;20020;-76
2021/06/13 03:44:27;;;;;;;3.35;2.83;;;;;;;18.19;57.62;99351.13;5074324;28;20031;-76
2021/06/13 03:46:55;;;;;;;5.97;3.58;;;;;;;17.86;57.54;99294.78;5074692;28;20078;-77
2021/06/13 03:49:21;;;;;;;3.72;3.17;;;;;;;17.88;57.58;99309.53;5072947;28;20425;-76
2021/06/13 03:51:46;;;;;;;4.60;3.53;;;;;;;18.21;57.72;99354.38;5074147;28;20025;-76
2021/06/13 03:54:12;;;;;;;5.30;3.45;;;;;;;17.80;57.94;99301.81;5073861;28;20036;-76
2021/06/13 03:56:46;;;;;;;6.55;3.20;;;;;;;18.00;58.15;99321.03;5073949;28;20034;-76
2021/06/13 03:59:16;;;;;;;4.88;3.22;;;;;;;18.13;57.81;99337.88;5073887;28;20095;-77
2021/06/13 04:01:44;;;;;;;5.03;3.13;;;;;;;18.36;57.69;99354.72;5074107;28;20570;-77
2021/06/13 04:04:12;;;;;;;4.50;3.55;;;;;;;18.41;57.70;99343.31;5072527;28;20013;-77
2021/06/13 04:06:41;;;;;;;7.57;3.67;;;;;;;18.49;57.48;99350.19;5073615;28;20070;-77
2021/06/13 04:09:09;;;;;;;6.25;3.50;;;;;;;18.46;57.26;99351.47;5072403;28;20017;-76
2021/06/13 04:11:36;;;;;;;3.80;3.50;;;;;;;17.93;57.46;99264.22;5073801;28;20028;-77
2021/06/13 04:14:03;;;;;;;6.20;3.45;;;;;;;18.49;57.24;99353.66;5072286;28;20082;-77
2021/06/13 04:16:29;;;;;;;5.72;2.83;;;;;;;18.32;57.58;99324.16;5073586;28;20024;-77
2021/06/13 04:18:55;;;;;;;4.38;3.38;;;;;;;18.53;57.51;99372.72;5072368;28;20035;-77
2021/06/13 04:21:22;;;;;;;4.50;3.40;;;;;;;18.59;57.29;99350.44;5073342;28;20614;-76
2021/06/13 04:23:49;;;;;;;3.88;3.10;;;;;;;18.60;57.48;99357.41;5073248;28;20012;-76
2021/06/13 04:26:17;;;;;;;4.00;3.28;;;;;;;18.14;57.36;99284.19;5073037;28;20024;-77
2021/06/13 04:28:44;;;;;;;3.33;2.70;;;;;;;18.21;57.62;99302.78;5072987;28;20051;-76
2021/06/13 04:31:12;;;;;;;4.13;3.00;;;;;;;18.58;57.47;99351.44;5071294;28;20074;-78
2021/06/13 04:33:40;;;;;;;3.75;3.35;;;;;;;18.35;57.62;99325.53;5073078;28;20048;-77
2021/06/13 04:36:06;;;;;;;4.78;3.35;;;;;;;18.28;57.57;99288.25;5071954;28;20024;-76
2021/06/13 04:38:31;;;;;;;3.92;3.42;;;;;;;18.57;57.65;99334.59;5073194;28;20030;-77
2021/06/13 04:40:58;;;;;;;4.30;3.17;;;;;;;18.68;57.51;99341.84;5072941;28;20045;-77
2021/06/13 04:43:24;;;;;;;4.70;3.40;;;;;;;18.68;57.47;99335.69;5073137;28;20030;-77
2021/06/13 04:45:49;;;;;;;5.63;4.03;;;;;;;18.79;57.45;99347.41;5073095;28;20017;-78
2021/06/13 04:48:15;;;;;;;7.00;3.83;;;;;;;18.82;57.30;99339.72;5073028;28;20052;-77
2021/06/13 04:50:42;;;;;;;5.20;3.20;;;;;;;18.98;57.16;99376.44;5073533;28;20476;-77
2021/06/13 04:53:32;;;;;;;4.18;3.30;;;;;;;18.54;57.62;99288.78;5072827;28;20040;-76
2021/06/13 04:56:04;;;;;;;6.50;4.05;;;;;;;18.75;57.14;99304.25;5067919;28;20040;-76
2021/06/13 04:58:29;;;;;;;4.75;3.45;;;;;;;18.67;57.41;99285.91;5056031;28;20455;-77
2021/06/13 05:00:55;;;;;;;3.58;3.13;;;;;;;19.02;57.27;99323.25;5071565;28;20161;-78
2021/06/13 05:03:20;;;;;;;6.18;3.78;;;;;;;19.20;57.41;99357.84;5072669;28;20107;-76
2021/06/13 05:05:46;;;;;;;5.32;3.47;;;;;;;18.95;57.60;99307.34;5072701;28;20033;-76
2021/06/13 05:08:11;;;;;;;3.70;3.40;;;;;;;18.97;57.35;99299.88;5072395;28;20035;-76
2021/06/13 05:10:37;;;;;;;5.00;3.15;;;;;;;19.34;57.24;99355.75;5072473;28;20397;-76
2021/06/13 05:13:14;;;;;;;6.20;3.42;;;;;;;19.30;57.34;99336.63;5072300;28;20485;-77
2021/06/13 05:15:39;;;;;;;3.97;3.50;;;;;;;19.43;57.21;99348.94;5072562;28;20508;-76
2021/06/13 05:18:04;;;;;;;4.63;3.38;;;;;;;19.52;57.12;99347.53;5072504;28;20024;-76
2021/06/13 05:20:30;;;;;;;4.30;3.40;;;;;;;19.04;56.63;99255.06;5072112;28;20044;-76
2021/06/13 05:23:00;;;;;;;3.28;2.97;;;;;;;19.66;56.92;99350.72;5072385;28;20021;-77
2021/06/13 05:25:29;;;;;;;4.65;3.30;;;;;;;19.72;56.89;99348.94;5072374;28;20090;-76
2021/06/13 05:27:56;;;;;;;7.30;3.60;;;;;;;19.77;57.16;99346.34;5072380;28;20028;-77
2021/06/13 05:30:23;;;;;;;4.78;3.50;;;;;;;19.23;57.02;99246.81;5070898;28;20386;-75
2021/06/13 05:32:48;;;;;;;4.38;3.63;;;;;;;19.75;57.09;99322.47;5071978;28;20100;-77
2021/06/13 05:35:14;;;;;;;3.50;3.20;;;;;;;19.89;57.15;99336.34;5072270;28;20534;-76
2021/06/13 05:37:40;;;;;;;5.03;3.20;;;;;;;20.05;57.07;99351.63;5072208;28;20020;-77
2021/06/13 05:40:08;;;;;;;4.10;3.38;;;;;;;20.12;56.95;99351.50;5072078;28;20056;-76
2021/06/13 05:42:33;;;;;;;3.50;3.20;;;;;;;19.91;56.87;99302.91;5071786;28;20032;-77
2021/06/13 05:44:58;;;;;;;4.28;3.40;;;;;;;20.16;56.46;99334.66;5072178;28;20020;-76
2021/06/13 05:47:24;;;;;;;4.60;3.55;;;;;;;19.92;56.61;99284.97;5072237;28;20086;-77
2021/06/13 05:49:49;;;;;;;3.70;3.40;;;;;;;20.31;56.42;99342.94;5070709;28;20501;-76
2021/06/13 05:52:15;;;;;;;3.65;3.22;;;;;;;20.43;56.26;99348.22;5071949;28;20024;-76
2021/06/13 05:54:40;;;;;;;5.53;3.35;;;;;;;20.15;56.32;99286.66;5072094;28;20012;-76
2021/06/13 05:57:06;;;;;;;4.85;4.45;;;;;;;20.41;56.15;99318.16;5071922;28;20593;-75
2021/06/13 05:59:31;;;;;;;4.35;3.50;;;;;;;20.33;56.14;99304.34;5071845;28;20539;-76
2021/06/13 06:01:57;;;;;;;5.10;3.55;;;;;;;20.16;55.82;99258.81;5072147;28;20120;-77
2021/06/13 06:04:22;;;;;;;8.25;3.25;;;;;;;20.17;55.44;99255.06;5072153;28;20017;-76
2021/06/13 06:06:48;;;;;;;5.10;3.30;;;;;;;20.80;55.33;99335.03;5071536;28;20413;-76
2021/06/13 06:09:13;;;;;;;3.90;3.25;;;;;;;20.47;55.19;99284.19;5071950;28;20028;-76
2021/06/13 06:11:42;;;;;;;2.92;2.65;;;;;;;20.61;55.11;99277.38;5072270;28;20029;-77
2021/06/13 06:14:11;;;;;;;3.50;2.88;;;;;;;20.87;54.87;99321.44;5070523;28;20104;-77
2021/06/13 06:16:36;;;;;;;4.05;2.88;;;;;;;21.12;54.55;99328.97;5071938;28;20104;-76
2021/06/13 06:19:02;;;;;;;6.72;3.20;;;;;;;21.09;54.43;99308.00;5071825;28;20468;-76
2021/06/13 06:21:27;;;;;;;5.20;3.15;;;;;;;20.68;54.04;99227.03;5071880;28;20074;-77
2021/06/13 06:23:53;;;;;;;3.80;3.03;;;;;;;21.12;53.94;99289.53;5071775;28;20413;-76
2021/06/13 06:26:19;;;;;;;3.20;2.80;;;;;;;21.31;53.58;99308.81;5071692;28;20035;-76
2021/06/13 06:28:45;;;;;;;3.47;2.88;;;;;;;21.36;53.60;99314.22;5071746;28;20028;-76
2021/06/13 06:31:11;;;;;;;4.20;2.80;;;;;;;21.46;53.24;99318.88;5071805;28;20079;-76
2021/06/13 06:33:37;;;;;;;3.78;2.70;;;;;;;21.26;52.73;99271.16;5071554;28;20505;-76
2021/06/13 06:36:03;;;;;;;3.60;2.50;;;;;;;20.96;52.46;99219.84;5071373;28;20062;-76
2021/06/13 06:38:29;;;;;;;3.80;2.65;;;;;;;21.59;52.44;99298.88;5071434;28;20021;-77
2021/06/13 06:40:54;;;;;;;4.63;2.55;;;;;;;21.39;52.39;99269.94;5069876;28;20497;-77
2021/06/13 06:43:20;;;;;;;3.03;2.80;;;;;;;21.69;51.90;99317.78;5071751;28;20091;-77
2021/06/13 06:45:45;;;;;;;4.00;2.85;;;;;;;21.61;51.96;99284.13;5071329;28;20056;-76
2021/06/13 06:48:11;;;;;;;3.80;2.50;;;;;;;21.32;52.01;99234.44;5071360;28;20063;-77
2021/06/13 06:50:36;;;;;;;3.22;3.03;;;;;;;21.61;51.80;99253.75;5070150;28;20048;-77
2021/06/13 06:53:01;;;;;;;3.42;3.13;;;;;;;21.91;52.14;99288.13;5071364;28;20027;-77
2021/06/13 06:55:27;;;;;;;2.97;2.65;;;;;;;21.56;51.75;99217.72;5073997;28;20021;-77
2021/06/13 06:57:52;;;;;;;3.20;2.90;;;;;;;22.11;50.89;99294.47;5074924;28;20024;-77
2021/06/13 07:00:18;;;;;;;3.33;3.03;;;;;;;21.98;50.20;99268.00;5073865;28;20024;-77
2021/06/13 07:02:44;;;;;;;6.25;3.50;;;;;;;21.79;49.54;99221.91;5073850;28;20466;-77
2021/06/13 07:05:10;;;;;;;3.97;3.00;;;;;;;22.20;49.48;99260.63;5075412;28;20031;-77
2021/06/13 07:07:35;;;;;;;6.20;3.25;;;;;;;22.02;49.10;99211.84;5075107;28;20028;-77
2021/06/13 07:10:02;;;;;;;2.97;2.75;;;;;;;22.13;48.68;99213.53;5074910;28;20074;-78
2021/06/13 07:12:29;;;;;;;3.60;2.92;;;;;;;22.58;48.36;99272.13;5074288;28;20025;-77
2021/06/13 07:14:54;;;;;;;5.25;3.10;;;;;;;22.27;48.27;99216.56;5074464;28;20099;-75
2021/06/13 07:17:20;;;;;;;3.10;2.90;;;;;;;22.67;48.04;99270.56;5074641;28;20095;-76
2021/06/13 07:19:45;;;;;;;3.58;3.00;;;;;;;22.35;47.94;99224.97;5074695;28;20017;-75
2021/06/13 07:22:11;;;;;;;3.38;2.70;;;;;;;22.86;47.60;99281.69;5074225;28;20021;-75
2021/06/13 07:24:36;;;;;;;3.50;3.20;;;;;;;22.62;47.45;99227.50;5073368;28;20026;-76
2021/06/13 07:27:02;;;;;;;3.28;3.00;;;;;;;22.69;47.25;99228.03;5074535;28;20020;-76
2021/06/13 07:29:27;;;;;;;4.38;3.15;;;;;;;22.77;47.18;99224.84;5074536;28;20020;-75
2021/06/13 07:31:54;;;;;;;6.32;3.00;;;;;;;23.11;47.14;99276.41;5073378;28;20477;-77
2021/06/13 07:34:20;;;;;;;3.63;3.33;;;;;;;22.79;46.86;99209.22;5074356;28;20042;-77
2021/06/13 07:36:45;;;;;;;3.78;3.45;;;;;;;23.04;46.54;99240.84;5073294;28;20028;-77
2021/06/13 07:39:11;;;;;;;4.28;3.47;;;;;;;23.00;46.43;99220.88;5074599;28;20519;-78
2021/06/13 07:41:36;;;;;;;5.07;3.45;;;;;;;23.06;46.68;99216.34;5072839;28;20471;-77
2021/06/13 07:44:02;;;;;;;3.58;3.28;;;;;;;23.39;46.68;99248.16;5074097;28;20173;-77
2021/06/13 07:46:28;;;;;;;5.35;3.70;;;;;;;23.48;46.25;99263.78;5074180;28;20026;-76
2021/06/13 07:48:53;;;;;;;4.15;3.78;;;;;;;23.59;46.20;99252.75;5074138;28;20025;-76
2021/06/13 07:51:19;;;;;;;3.70;3.40;;;;;;;23.67;46.05;99254.09;5074144;28;20150;-76
2021/06/13 07:53:44;;;;;;;4.10;3.25;;;;;;;23.72;45.71;99237.91;5074469;28;20051;-76
2021/06/13 07:56:14;;;;;;;5.25;3.50;;;;;;;23.80;45.46;99239.28;5074085;28;20103;-75
2021/06/13 07:58:40;;;;;;;4.75;3.17;;;;;;;23.84;45.34;99243.06;5074334;28;20017;-77
2021/06/13 08:01:05;;;;;;;5.65;3.60;;;;;;;23.60;45.32;99191.56;5073969;28;20178;-76
2021/06/13 08:03:31;;;;;;;7.35;3.60;;;;;;;23.83;44.97;99217.97;5074246;28;20020;-76
2021/06/13 08:05:56;;;;;;;5.25;3.38;;;;;;;23.85;45.04;99199.66;5073335;28;20100;-76
2021/06/13 08:08:21;;;;;;;4.95;3.42;;;;;;;23.54;44.63;99136.84;5073970;28;20012;-76
2021/06/13 08:10:47;;;;;;;3.75;3.42;;;;;;;24.22;45.27;99237.03;5073782;28;20025;-76
2021/06/13 08:13:13;;;;;;;4.90;3.78;;;;;;;24.08;45.04;99203.63;5072136;28;20021;-76
2021/06/13 08:15:40;;;;;;;4.22;3.80;;;;;;;24.10;44.97;99182.59;5073984;28;20046;-77
2021/06/13 08:18:06;;;;;;;3.70;3.40;;;;;;;24.50;44.72;99226.69;5074790;28;20020;-77
2021/06/13 08:20:32;;;;;;;3.60;3.30;;;;;;;24.54;44.40;99220.50;5073331;28;20025;-77
2021/06/13 08:22:58;;;;;;;3.40;3.10;;;;;;;24.09;44.77;99141.31;5073525;28;20040;-75
2021/06/13 08:25:25;;;;;;;3.85;3.53;;;;;;;24.33;44.54;99162.28;5073273;28;20472;-75
2021/06/13 08:27:50;;;;;;;3.70;3.35;;;;;;;24.39;44.78;99161.19;5072001;28;20024;-76
2021/06/13 08:30:17;;;;;;;4.30;3.90;;;;;;;24.93;44.55;99219.75;5073214;28;20096;-74
2021/06/13 08:32:44;;;;;;;5.43;3.15;;;;;;;25.01;44.53;99214.59;5073143;28;20507;-75
2021/06/13 08:35:11;;;;;;;4.78;3.65;;;;;;;24.87;44.39;99172.25;5071729;28;20017;-75
2021/06/13 08:37:37;;;;;;;4.82;3.40;;;;;;;24.80;43.84;99152.84;5072930;28;20522;-76
2021/06/13 08:40:05;;;;;;;5.63;3.60;;;;;;;25.25;43.96;99195.75;5072751;28;20033;-76
2021/06/13 08:42:30;;;;;;;5.15;3.50;;;;;;;25.16;43.93;99183.16;5072981;28;20016;-76
2021/06/13 08:44:56;;;;;;;4.53;3.83;;;;;;;25.39;43.85;99187.84;5072977;28;20416;-76
2021/06/13 08:47:25;;;;;;;5.63;3.72;;;;;;;25.11;43.42;99143.47;5072923;28;20043;-76
2021/06/13 08:49:50;;;;;;;3.35;3.05;;;;;;;25.43;43.38;99197.00;5072802;28;20032;-76
2021/06/13 08:52:16;;;;;;;3.58;3.38;;;;;;;25.55;42.56;99197.44;5072660;28;20024;-76
2021/06/13 08:54:41;;;;;;;4.72;3.50;;;;;;;25.67;42.64;99191.66;5072801;28;20075;-76
2021/06/13 08:57:08;;;;;;;5.15;3.55;;;;;;;25.46;42.25;99126.16;5071680;28;20051;-75
2021/06/13 08:59:34;;;;;;;5.85;3.40;;;;;;;26.01;41.84;99191.59;5072869;28;20086;-75
2021/06/13 09:02:00;;;;;;;3.42;3.00;;;;;;;26.11;41.64;99171.75;5072563;28;20432;-77
2021/06/13 09:04:25;;;;;;;5.53;3.60;;;;;;;26.28;41.12;99172.88;5072775;28;20021;-76
2021/06/13 09:06:51;;;;;;;4.00;3.63;;;;;;;26.38;40.94;99171.16;5071271;28;20073;-76
2021/06/13 09:09:29;;;;;;;4.28;3.20;;;;;;;26.42;39.58;99169.47;5072386;28;20020;-76
2021/06/13 09:12:00;;;;;;;5.93;3.20;;;;;;;26.51;39.44;99176.66;5072509;28;20028;-76
2021/06/13 09:14:26;;;;;;;4.65;3.42;;;;;;;26.54;40.45;99162.53;5072335;28;20103;-77
2021/06/13 09:16:52;;;;;;;5.25;3.30;;;;;;;26.78;39.61;99161.69;5072376;28;20024;-76
2021/06/13 09:19:18;;;;;;;4.70;3.00;;;;;;;26.82;39.19;99119.38;5072650;28;20082;-76
2021/06/13 09:21:43;;;;;;;4.72;3.60;;;;;;;27.15;38.97;99148.13;5072596;28;20036;-76
2021/06/13 09:24:26;;;;;;;4.35;3.42;;;;;;;27.03;38.02;99115.25;5072528;28;20526;-76
2021/06/13 09:26:53;;;;;;;3.50;3.20;;;;;;;27.39;38.68;99145.28;5072291;28;20094;-76
2021/06/13 09:29:19;;;;;;;3.95;3.38;;;;;;;27.44;38.68;99119.97;5072128;28;20024;-76
2021/06/13 09:31:45;;;;;;;5.47;3.75;;;;;;;27.70;38.67;99137.44;5070505;28;20082;-76
2021/06/13 09:34:16;;;;;;;17.35;3.75;;;;;;;27.37;38.50;99070.75;5071814;28;20078;-74
2021/06/13 09:36:42;;;;;;;3.88;3.58;;;;;;;27.88;38.09;99129.50;5071989;28;20048;-76
2021/06/13 09:39:14;;;;;;;6.95;3.45;;;;;;;27.66;38.21;99111.22;5071894;28;20056;-76
2021/06/13 09:41:43;;;;;;;4.03;3.10;;;;;;;27.62;37.51;99093.94;5071765;28;20577;-76
2021/06/13 09:44:11;;;;;;;5.30;3.60;;;;;;;27.79;37.60;99126.69;5071738;28;20622;-77
2021/06/13 09:46:40;;;;;;;3.63;3.28;;;;;;;27.64;37.49;99097.94;5071903;28;20500;-76
2021/06/13 09:49:10;;;;;;;5.72;3.35;;;;;;;27.84;36.91;99121.97;5070774;28;20032;-76
2021/06/13 09:51:42;;;;;;;3.67;3.37;;;;;;;27.76;36.64;99089.31;5072217;28;20552;-76
2021/06/13 09:54:10;;;;;;;5.57;3.30;;;;;;;28.02;36.62;99114.00;5070710;28;20305;-76
2021/06/13 09:56:38;;;;;;;3.63;3.30;;;;;;;27.98;36.65;99113.00;5072145;28;20031;-76
2021/06/13 09:59:14;;;;;;;5.45;3.45;;;;;;;27.64;36.52;99051.84;5071899;28;20031;-76
2021/06/13 10:01:49;;;;;;;3.65;3.35;;;;;;;27.96;36.60;99105.19;5072806;28;20127;-77
2021/06/13 10:04:21;;;;;;;3.67;3.38;;;;;;;28.12;36.66;99100.22;5071585;28;20016;-76
2021/06/13 10:06:48;;;;;;;3.13;2.83;;;;;;;28.30;36.03;99099.34;5071958;28;20024;-75
2021/06/13 10:09:14;;;;;;;3.40;3.10;;;;;;;28.54;35.58;99092.84;5070521;28;20119;-76
2021/06/13 10:11:40;;;;;;;7.30;3.47;;;;;;;28.32;35.51;99042.03;5071927;28;20020;-76
2021/06/13 10:14:08;;;;;;;5.03;3.35;;;;;;;28.50;34.94;99059.25;5071587;28;20439;-74
2021/06/13 10:16:39;;;;;;;3.03;2.83;;;;;;;28.78;34.29;99094.16;5071487;28;20421;-75
2021/06/13 10:19:16;;;;;;;3.10;2.90;;;;;;;28.95;32.39;99082.63;5071523;28;20024;-77
2021/06/13 10:22:01;;;;;;;4.53;3.00;;;;;;;29.29;32.63;99087.47;5071316;28;20036;-75
2021/06/13 10:24:36;;;;;;;3.10;2.80;;;;;;;29.46;33.22;99081.34;5071618;28;20504;-75
2021/06/13 10:27:23;;;;;;;4.22;3.08;;;;;;;29.25;33.23;99021.25;5071849;28;20028;-76
2021/06/13 10:29:51;;;;;;;3.58;3.10;;;;;;;29.51;33.03;99045.84;5073007;28;20040;-76
2021/06/13 10:32:20;;;;;;;3.17;2.88;;;;;;;30.01;31.84;99078.19;5075762;28;20386;-77
2021/06/13 10:34:49;;;;;;;5.93;2.70;;;;;;;29.89;31.30;99057.03;5074280;28;20029;-77
2021/06/13 10:37:15;;;;;;;3.25;3.05;;;;;;;30.28;31.37;99068.94;5075528;28;20048;-76
2021/06/13 10:39:40;;;;;;;3.92;2.70;;;;;;;30.16;31.32;99066.84;5075511;28;20055;-77
2021/06/13 10:42:12;;;;;;;4.10;3.05;;;;;;;30.16;31.32;99077.75;5075273;28;20027;-77
2021/06/13 10:44:46;;;;;;;5.70;2.95;;;;;;;29.64;31.43;99041.41;5075169;28;20021;-77
2021/06/13 10:47:13;;;;;;;5.82;3.30;;;;;;;28.71;32.35;98935.41;5073964;28;20082;-77
2021/06/13 10:49:40;;;;;;;6.10;3.30;;;;;;;29.14;31.72;99022.63;5075202;28;20503;-75
2021/06/13 10:52:15;;;;;;;3.47;2.92;;;;;;;29.42;31.50;99066.75;5075256;28;20035;-78
2021/06/13 10:54:53;;;;;;;3.58;2.90;;;;;;;28.70;31.95;98947.38;5075057;28;20119;-77
2021/06/13 10:57:19;;;;;;;4.55;3.30;;;;;;;29.37;32.48;99061.44;5074984;28;20020;-76
2021/06/13 10:59:49;;;;;;;5.50;3.53;;;;;;;29.00;33.16;99041.75;5074916;28;20123;-75
2021/06/13 11:02:23;;;;;;;3.30;3.00;;;;;;;29.02;33.28;99069.41;5074863;28;20089;-77
2021/06/13 11:04:57;;;;;;;3.00;2.80;;;;;;;28.88;33.76;99062.44;5073543;28;20531;-77
2021/06/13 11:07:28;;;;;;;6.97;3.50;;;;;;;28.71;34.06;99066.59;5074880;28;20039;-76
2021/06/13 11:10:04;;;;;;;5.35;4.30;;;;;;;28.54;34.43;99065.69;5074708;28;20052;-74
2021/06/13 11:12:49;;;;;;;4.85;3.83;;;;;;;28.46;34.90;99075.38;5074906;28;20023;-76
2021/06/13 11:15:35;;;;;;;3.58;3.28;;;;;;;28.40;34.86;99079.31;5075293;28;20021;-76
2021/06/13 11:18:05;;;;;;;3.63;3.33;;;;;;;28.33;34.96;99078.94;5073371;28;20475;-75
2021/06/13 11:22:57;;;;;;;4.93;3.55;;;;;;;28.57;34.61;99084.06;5075075;28;20470;-74
2021/06/13 11:25:27;;;;;;;4.50;3.60;;;;;;;28.44;34.06;99067.53;5074588;28;20063;-74
2021/06/13 11:28:15;;;;;;;3.85;3.55;;;;;;;28.32;33.63;99063.75;5073973;28;20033;-76
2021/06/13 11:30:45;;;;;;;4.40;3.88;;;;;;;27.94;34.74;99033.31;5074901;28;20024;-77
2021/06/13 11:33:31;;;;;;;5.05;3.78;;;;;;;28.07;35.28;99068.56;5074705;28;20032;-76
2021/06/13 11:35:57;;;;;;;3.85;3.50;;;;;;;27.75;35.70;99042.38;5074550;28;20024;-77
2021/06/13 11:38:24;;;;;;;5.22;3.83;;;;;;;27.86;36.18;99078.25;5074283;28;20083;-77
2021/06/13 11:40:55;;;;;;;4.93;3.70;;;;;;;27.75;36.60;99087.69;5071622;28;20039;-76